createdAt,value
2022-10-04T00:03:13.007Z,91.11
2022-10-04T00:08:32.888Z,90.49
2022-10-04T00:13:38.167Z,91.71
2022-10-04T00:18:45.246Z,90.66
2022-10-04T00:23:47.894Z,91.91
2022-10-04T00:28:50.243Z,92.80
2022-10-04T00:34:03.668Z,91.67
2022-10-04T00:39:05.247Z,90.98
2022-10-04T00:44:16.552Z,92.02
2022-10-04T00:49:23.201Z,92.68
2022-10-04T00:54:54.550Z,91.45
2022-10-04T00:59:59.728Z,91.08
2022-10-04T01:05:21.563Z,92.01
2022-10-04T01:10:30.670Z,91.02
2022-10-04T01:15:43.160Z,91.20
2022-10-04T01:21:03.630Z,92.36
2022-10-04T01:26:26.559Z,90.75
2022-10-04T01:31:33.548Z,91.29
2022-10-04T01:36:36.967Z,91.06
2022-10-04T01:41:56.867Z,93.77
2022-10-04T01:47:03.154Z,92.41
2022-10-04T01:52:19.805Z,93.02
2022-10-04T01:57:30.993Z,92.93
2022-10-04T02:02:45.448Z,91.89
2022-10-04T02:07:48.957Z,91.71
2022-10-04T02:12:54.708Z,92.64
2022-10-04T02:17:57.322Z,92.54
2022-10-04T02:23:03.257Z,92.48
2022-10-04T02:28:10.787Z,92.98
2022-10-04T02:33:12.689Z,93.37
2022-10-04T02:38:28.510Z,91.90
2022-10-04T02:43:38.874Z,94.62
2022-10-04T02:48:45.661Z,92.21
2022-10-04T02:54:03.808Z,92.48
2022-10-04T02:59:07.066Z,92.39
2022-10-04T03:04:12.049Z,92.37
2022-10-04T03:09:14.881Z,91.62
2022-10-04T03:14:21.009Z,93.44
2022-10-04T03:19:25.002Z,94.04
2022-10-04T03:24:37.234Z,94.41
2022-10-04T03:29:43.256Z,94.20
2022-10-04T03:34:53.997Z,93.98
2022-10-04T03:39:57.095Z,95.02
2022-10-04T03:45:06.344Z,94.02
2022-10-04T03:50:25.328Z,95.72
2022-10-04T03:55:53.487Z,96.82
2022-10-04T04:01:11.279Z,94.97
2022-10-04T04:06:17.102Z,95.73
2022-10-04T04:11:23.691Z,95.83
2022-10-04T04:16:28.685Z,95.02
2022-10-04T04:21:31.795Z,96.33
2022-10-04T04:26:45.468Z,95.73
2022-10-04T04:31:58.795Z,95.51
2022-10-04T04:37:03.092Z,95.39
2022-10-04T04:42:15.350Z,95.70
2022-10-04T04:47:40.683Z,96.20
2022-10-04T04:52:50.228Z,97.11
2022-10-04T04:57:56.021Z,96.85
2022-10-04T05:03:00.839Z,95.64
2022-10-04T05:08:20.785Z,96.73
2022-10-04T05:13:28.810Z,96.64
2022-10-04T05:18:33.162Z,95.17
2022-10-04T05:23:35.444Z,97.30
2022-10-04T05:28:37.116Z,93.67
2022-10-04T05:33:46.748Z,93.80
2022-10-04T05:39:04.448Z,93.49
2022-10-04T05:44:26.111Z,94.48
2022-10-04T05:49:33.290Z,94.81
2022-10-04T05:54:35.838Z,95.45
2022-10-04T06:00:17.313Z,94.66
2022-10-04T06:05:44.971Z,93.50
2022-10-04T06:11:03.202Z,91.57
2022-10-04T06:16:23.709Z,91.31
2022-10-04T06:21:27.671Z,91.84
2022-10-04T06:26:38.400Z,91.17
2022-10-04T06:32:09.024Z,89.27
2022-10-04T06:37:25.573Z,90.08
2022-10-04T06:43:02.709Z,90.76
2022-10-04T06:48:25.187Z,89.83
2022-10-04T06:53:59.349Z,90.64
2022-10-04T06:59:33.357Z,87.60
2022-10-04T07:05:07.060Z,87.92
2022-10-04T07:10:19.438Z,87.13
2022-10-04T07:15:29.377Z,86.15
2022-10-04T07:20:35.699Z,85.56
2022-10-04T07:25:43.891Z,88.27
2022-10-04T07:31:03.749Z,88.14
2022-10-04T07:36:10.991Z,82.26
2022-10-04T07:41:36.172Z,84.29
2022-10-04T07:46:46.277Z,82.99
2022-10-04T07:52:20.666Z,81.94
2022-10-04T07:57:40.915Z,82.46
2022-10-04T08:02:48.606Z,82.30
2022-10-04T08:08:00.567Z,80.96
2022-10-04T08:13:22.294Z,78.32
2022-10-04T08:18:29.958Z,82.24
2022-10-04T08:23:53.321Z,82.24
2022-10-04T08:29:22.513Z,78.56
2022-10-04T08:34:44.884Z,80.80
2022-10-04T08:39:56.443Z,81.29
2022-10-04T08:45:45.998Z,79.17
2022-10-04T08:51:25.529Z,78.99
2022-10-04T08:56:52.753Z,77.50
2022-10-04T09:02:25.409Z,73.58
2022-10-04T09:08:14.875Z,76.68
2022-10-04T09:13:42.993Z,78.12
2022-10-04T09:18:57.206Z,76.09
2022-10-04T09:24:35.849Z,73.67
2022-10-04T09:29:52.493Z,73.09
2022-10-04T09:34:59.638Z,71.73
2022-10-04T09:40:42.417Z,71.70
2022-10-04T09:45:56.047Z,70.21
2022-10-04T09:51:07.946Z,69.18
2022-10-04T09:56:15.831Z,66.50
2022-10-04T10:02:05.360Z,67.04
2022-10-04T10:07:35.866Z,71.27
2022-10-04T10:13:14.046Z,70.61
2022-10-04T10:18:21.850Z,69.58
2022-10-04T10:23:38.280Z,68.23
2022-10-04T10:28:42.651Z,66.27
2022-10-04T10:34:13.567Z,64.75
2022-10-04T10:39:36.886Z,66.64
2022-10-04T10:45:14.990Z,65.29
2022-10-04T10:51:00.226Z,67.69
2022-10-04T10:56:04.604Z,67.74
2022-10-04T11:01:36.279Z,66.89
2022-10-04T11:06:50.342Z,65.88
2022-10-04T11:12:10.768Z,64.81
2022-10-04T11:17:46.532Z,66.23
2022-10-04T11:23:31.708Z,63.73
2022-10-04T11:28:50.415Z,62.85
2022-10-04T11:34:17.769Z,60.58
2022-10-04T11:39:55.373Z,61.98
2022-10-04T11:45:17.194Z,60.99
2022-10-04T11:50:55.993Z,59.08
2022-10-04T11:56:22.282Z,57.54
2022-10-04T12:01:59.858Z,59.03
2022-10-04T12:07:22.741Z,57.77
2022-10-04T12:12:53.541Z,56.13
2022-10-04T12:18:19.755Z,57.90
2022-10-04T12:23:24.147Z,60.06
2022-10-04T12:28:44.450Z,58.40
2022-10-04T12:34:24.010Z,58.64
2022-10-04T12:39:44.070Z,59.82
2022-10-04T12:44:45.520Z,58.46
2022-10-04T12:50:13.884Z,59.43
2022-10-04T12:55:47.537Z,57.75
2022-10-04T13:00:52.679Z,57.97
2022-10-04T13:06:09.567Z,59.91
2022-10-04T13:11:17.165Z,61.24
2022-10-04T13:22:54.941Z,57.78
2022-10-04T13:27:58.012Z,58.45
2022-10-04T13:33:30.060Z,59.32
2022-10-04T13:38:41.395Z,59.19
2022-10-04T13:43:42.849Z,56.96
2022-10-04T13:48:51.683Z,58.07
2022-10-04T13:54:50.276Z,56.61
2022-10-04T14:00:06.238Z,59.55
2022-10-04T14:05:32.883Z,57.10
2022-10-04T14:10:46.499Z,54.68
2022-10-04T14:16:19.148Z,54.01
2022-10-04T14:21:35.254Z,56.01
2022-10-04T14:27:06.968Z,57.30
2022-10-04T14:32:51.524Z,58.62
2022-10-04T14:38:14.523Z,56.60
2022-10-04T14:43:41.098Z,54.17
2022-10-04T14:49:11.559Z,53.92
2022-10-04T14:54:29.665Z,52.71
2022-10-04T14:59:44.683Z,53.29
2022-10-04T15:04:48.964Z,55.21
2022-10-04T15:09:59.802Z,55.62
2022-10-04T15:15:20.273Z,57.41
2022-10-04T15:20:57.071Z,55.88
2022-10-04T15:26:50.128Z,58.15
2022-10-04T15:32:19.333Z,60.01
2022-10-04T15:37:25.808Z,60.71
2022-10-04T15:42:33.347Z,61.11
2022-10-04T15:47:56.784Z,61.48
2022-10-04T15:53:20.005Z,62.30
2022-10-04T15:58:41.958Z,63.44
2022-10-04T16:04:10.273Z,64.18
2022-10-04T16:09:33.526Z,65.25
2022-10-04T16:14:57.012Z,67.96
2022-10-04T16:20:12.978Z,69.58
2022-10-04T16:25:38.447Z,71.72
2022-10-04T16:30:49.962Z,73.91
2022-10-04T16:36:16.423Z,76.51
2022-10-04T16:41:29.198Z,77.84
2022-10-04T16:46:38.192Z,77.12
2022-10-04T16:52:14.131Z,77.88
2022-10-04T16:57:22.376Z,79.49
2022-10-04T17:02:46.107Z,79.69
2022-10-04T17:08:20.888Z,80.84
2022-10-04T17:13:50.774Z,82.88
2022-10-04T17:19:03.336Z,83.59
2022-10-04T17:24:17.001Z,84.58
2022-10-04T17:29:28.682Z,85.56
2022-10-04T17:34:48.999Z,85.67
2022-10-04T17:40:08.909Z,86.19
2022-10-04T17:45:29.333Z,86.87
2022-10-04T17:51:15.377Z,88.39
2022-10-04T17:56:45.720Z,88.33
2022-10-04T18:02:04.255Z,88.40
2022-10-04T18:07:12.130Z,89.52
2022-10-04T18:12:42.222Z,88.57
2022-10-04T18:17:50.946Z,88.06
2022-10-04T18:23:16.772Z,88.64
2022-10-04T18:28:22.785Z,90.04
2022-10-04T18:33:50.001Z,90.43
2022-10-04T18:39:14.380Z,90.89
2022-10-04T18:44:19.514Z,92.10
2022-10-04T18:49:26.986Z,91.97
2022-10-04T18:54:41.853Z,92.85
2022-10-04T19:00:29.548Z,94.16
2022-10-04T19:05:51.287Z,94.66
2022-10-04T19:10:59.651Z,96.21
2022-10-04T19:16:19.902Z,96.36
2022-10-04T19:21:39.656Z,96.43
2022-10-04T19:26:47.404Z,95.82
2022-10-04T19:32:04.291Z,94.49
2022-10-04T19:37:17.712Z,92.53
2022-10-04T19:42:33.931Z,91.63
2022-10-04T19:47:58.010Z,91.64
2022-10-04T19:53:07.634Z,91.23
2022-10-04T19:58:38.918Z,90.09
2022-10-04T20:03:40.795Z,88.88
2022-10-04T20:09:25.488Z,88.76
2022-10-04T20:14:26.904Z,88.94
2022-10-04T20:19:28.389Z,91.61
2022-10-04T20:24:50.348Z,92.63
2022-10-04T20:29:51.780Z,93.79
2022-10-04T20:34:55.315Z,94.27
2022-10-04T20:39:57.071Z,95.15
2022-10-04T20:45:10.645Z,95.36
2022-10-04T20:50:17.334Z,94.75
2022-10-04T20:55:27.229Z,94.05
2022-10-04T21:00:33.853Z,95.17
2022-10-04T21:05:35.915Z,94.91
2022-10-04T21:10:37.512Z,96.61
2022-10-04T21:15:55.531Z,96.92
2022-10-04T21:20:57.047Z,99.14
2022-10-04T21:26:18.916Z,100.00
2022-10-04T21:31:20.576Z,97.49
2022-10-04T21:36:22.193Z,99.37
2022-10-04T21:41:23.751Z,100.00
2022-10-04T21:46:25.419Z,100.00
2022-10-04T21:51:26.998Z,100.00
2022-10-04T21:56:28.604Z,100.00
2022-10-04T22:01:30.268Z,100.00
2022-10-04T22:06:31.841Z,99.39
2022-10-04T22:11:33.387Z,99.05
2022-10-04T22:16:35.034Z,100.00
2022-10-04T22:21:36.570Z,100.00
2022-10-04T22:26:38.091Z,100.00
2022-10-04T22:31:43.919Z,100.00
2022-10-04T22:36:48.416Z,100.00
2022-10-04T22:41:59.288Z,100.00
2022-10-04T22:47:02.075Z,100.00
2022-10-04T22:52:11.691Z,100.00
2022-10-04T22:57:15.407Z,100.00
2022-10-04T23:02:28.517Z,100.00
2022-10-04T23:07:32.783Z,100.00
2022-10-04T23:12:36.879Z,100.00
2022-10-04T23:17:39.499Z,100.00
2022-10-04T23:22:45.391Z,100.00
2022-10-04T23:27:48.105Z,100.00
2022-10-04T23:32:52.929Z,100.00
2022-10-04T23:37:54.831Z,99.78
2022-10-04T23:42:57.533Z,99.75
2022-10-04T23:48:01.289Z,100.00
2022-10-04T23:53:06.472Z,99.79
2022-10-04T23:58:17.690Z,100.00
